Udachnyy, Russia
Current Conditions -  °F | °C
As of 7:00 AM on Friday 24 Oct 2014 (Local Time) from UEEE Reporting Station
Moderate Fog Moderate Fog  
Wind Chill: -13°   Ceiling: 20000
Heat Index: -13°   Visibility: 6mi
Dew Point: -18°   Wind: 2mph
Humidity: 77%   Direction: 310°NW
Pressure: 29.77"   Gusts: NA
Location:  66.43°N, 112.4°E
Report Text: UEEE 232200Z 31001MPS 9999 VCFG BKN200 M25/M28 Q1008 NOSIG RMKQFE748 23490150
Loading
Personal Weather Stations






























Interactive Weather Map
Tropical Storm Tracking
New forecast layout! Learn more

10-Day Weather Forecast

Advertisements
Track Severe Weather on mobile